createdAt,value
2022-11-19T00:03:31.687Z,78.68
2022-11-19T00:08:33.623Z,78.96
2022-11-19T00:13:35.680Z,78.83
2022-11-19T00:18:37.239Z,78.87
2022-11-19T00:23:39.669Z,78.61
2022-11-19T00:28:41.913Z,78.18
2022-11-19T00:33:45.071Z,77.96
2022-11-19T00:38:46.414Z,78.23
2022-11-19T00:43:48.288Z,77.98
2022-11-19T00:48:51.786Z,78.31
2022-11-19T00:53:53.532Z,77.89
2022-11-19T00:58:55.176Z,78.00
2022-11-19T01:03:56.568Z,77.92
2022-11-19T01:08:58.533Z,78.01
2022-11-19T01:14:01.108Z,77.81
2022-11-19T01:19:03.966Z,77.70
2022-11-19T01:24:06.088Z,77.72
2022-11-19T01:29:07.565Z,77.47
2022-11-19T01:34:08.973Z,77.12
2022-11-19T01:39:10.387Z,77.78
2022-11-19T01:44:49.581Z,77.28
2022-11-19T01:49:51.255Z,77.55
2022-11-19T01:54:55.432Z,77.58
2022-11-19T01:59:56.961Z,77.59
2022-11-19T02:04:58.493Z,77.89
2022-11-19T02:10:02.443Z,78.27
2022-11-19T02:15:22.047Z,78.44
2022-11-19T02:20:49.902Z,78.05
2022-11-19T02:25:51.262Z,78.70
2022-11-19T02:30:59.847Z,77.81
2022-11-19T02:36:14.064Z,77.96
2022-11-19T02:41:33.864Z,77.35
2022-11-19T02:46:35.795Z,77.61
2022-11-19T02:51:37.701Z,77.54
2022-11-19T02:56:52.816Z,77.18
2022-11-19T03:02:12.903Z,77.57
2022-11-19T03:07:17.928Z,77.68
2022-11-19T03:12:47.128Z,77.41
2022-11-19T03:18:23.571Z,77.65
2022-11-19T03:23:31.536Z,77.23
2022-11-19T03:28:37.347Z,77.26
2022-11-19T03:33:44.453Z,77.39
2022-11-19T03:38:50.706Z,77.06
2022-11-19T03:43:58.226Z,77.13
2022-11-19T03:49:02.151Z,76.62
2022-11-19T03:54:03.872Z,77.14
2022-11-19T03:59:08.456Z,76.69
2022-11-19T04:04:28.593Z,76.57
2022-11-19T04:09:30.012Z,76.64
2022-11-19T04:14:31.500Z,76.69
2022-11-19T04:19:32.889Z,77.09
2022-11-19T04:24:34.580Z,76.84
2022-11-19T04:29:36.112Z,76.68
2022-11-19T04:34:37.576Z,76.64
2022-11-19T04:39:38.998Z,76.79
2022-11-19T04:44:40.459Z,76.13
2022-11-19T04:49:41.965Z,76.66
2022-11-19T04:54:43.347Z,76.41
2022-11-19T04:59:44.768Z,76.45
2022-11-19T05:04:46.195Z,76.54
2022-11-19T05:09:47.627Z,76.72
2022-11-19T05:14:49.088Z,76.30
2022-11-19T05:19:50.484Z,76.14
2022-11-19T05:24:52.079Z,76.36
2022-11-19T05:29:53.565Z,75.99
2022-11-19T05:34:55.012Z,76.34
2022-11-19T05:39:56.428Z,75.90
2022-11-19T05:44:57.962Z,76.03
2022-11-19T05:49:59.575Z,76.02
2022-11-19T05:55:01.389Z,75.80
2022-11-19T06:00:03.222Z,76.06
2022-11-19T06:05:13.672Z,76.02
2022-11-19T06:10:15.263Z,76.13
2022-11-19T06:15:16.992Z,75.78
2022-11-19T06:20:21.496Z,75.59
2022-11-19T06:25:23.149Z,75.56
2022-11-19T06:30:24.556Z,75.92
2022-11-19T06:35:26.031Z,76.02
2022-11-19T06:40:27.404Z,75.62
2022-11-19T06:45:28.871Z,75.77
2022-11-19T06:50:30.656Z,75.74
2022-11-19T06:55:32.087Z,75.75
2022-11-19T07:00:34.828Z,75.83
2022-11-19T07:05:36.286Z,75.93
2022-11-19T07:10:37.786Z,76.27
2022-11-19T07:15:39.283Z,76.42
2022-11-19T07:20:41.296Z,76.12
2022-11-19T07:25:42.696Z,76.31
2022-11-19T07:30:44.198Z,76.21
2022-11-19T07:35:45.710Z,76.16
2022-11-19T07:40:55.836Z,76.48
2022-11-19T07:45:57.241Z,77.09
2022-11-19T07:50:58.650Z,76.62
2022-11-19T07:56:00.947Z,77.09
2022-11-19T08:01:13.954Z,77.41
2022-11-19T08:06:17.306Z,77.48
2022-11-19T08:11:19.147Z,77.36
2022-11-19T08:16:39.371Z,77.19
2022-11-19T08:21:43.318Z,77.84
2022-11-19T08:26:45.689Z,78.26
2022-11-19T08:31:49.483Z,77.96
2022-11-19T08:36:51.031Z,77.75
2022-11-19T08:42:11.041Z,77.94
2022-11-19T08:47:12.491Z,78.03
2022-11-19T08:52:14.439Z,77.92
2022-11-19T08:57:15.866Z,78.51
2022-11-19T09:02:17.371Z,78.21
2022-11-19T09:07:19.274Z,78.46
2022-11-19T09:12:20.738Z,78.73
2022-11-19T09:17:22.187Z,79.23
2022-11-19T09:22:24.218Z,79.22
2022-11-19T09:27:25.758Z,79.34
2022-11-19T09:32:28.908Z,79.24
2022-11-19T09:37:34.069Z,79.25
2022-11-19T09:43:05.141Z,79.70
2022-11-19T09:48:14.177Z,79.65
2022-11-19T09:53:19.151Z,80.00
2022-11-19T09:58:37.451Z,80.05
2022-11-19T10:03:44.805Z,79.88
2022-11-19T10:09:09.487Z,79.74
2022-11-19T10:14:17.596Z,79.55
2022-11-19T10:19:32.760Z,79.49
2022-11-19T10:24:50.611Z,79.57
2022-11-19T10:29:56.417Z,79.72
2022-11-19T10:35:06.363Z,79.63
2022-11-19T10:40:23.799Z,79.23
2022-11-19T10:45:27.602Z,79.09
2022-11-19T10:50:29.151Z,79.01
2022-11-19T10:55:37.594Z,78.67
2022-11-19T11:00:41.308Z,78.75
2022-11-19T11:06:07.081Z,78.43
2022-11-19T11:11:08.559Z,78.50
2022-11-19T11:16:13.561Z,78.41
2022-11-19T11:21:36.783Z,77.55
2022-11-19T11:26:38.859Z,77.36
2022-11-19T11:31:44.772Z,77.63
2022-11-19T11:36:46.229Z,77.87
2022-11-19T11:42:07.082Z,77.74
2022-11-19T11:47:18.103Z,77.86
2022-11-19T11:52:28.495Z,76.79
2022-11-19T11:57:33.664Z,76.64
2022-11-19T12:02:36.012Z,76.75
2022-11-19T12:07:50.851Z,76.41
2022-11-19T12:13:28.401Z,76.18
2022-11-19T12:18:51.189Z,76.46
2022-11-19T12:24:06.615Z,76.43
2022-11-19T12:29:39.110Z,76.09
2022-11-19T12:34:57.200Z,75.96
2022-11-19T12:40:36.577Z,75.89
2022-11-19T12:45:53.457Z,75.87
2022-11-19T12:51:16.222Z,76.00
2022-11-19T12:56:43.591Z,75.42
2022-11-19T13:01:50.534Z,75.36
2022-11-19T13:07:04.067Z,75.02
2022-11-19T13:12:09.343Z,75.88
2022-11-19T13:17:35.293Z,75.33
2022-11-19T13:22:40.943Z,74.68
2022-11-19T13:27:44.611Z,72.61
2022-11-19T13:33:21.812Z,72.46
2022-11-19T13:38:46.420Z,72.56
2022-11-19T13:44:17.601Z,73.06
2022-11-19T13:49:25.800Z,73.94
2022-11-19T13:54:36.184Z,74.43
2022-11-19T13:59:49.467Z,74.30
2022-11-19T14:04:56.654Z,74.96
2022-11-19T14:10:04.336Z,74.50
2022-11-19T14:16:19.116Z,74.74
2022-11-19T14:21:45.077Z,74.61
2022-11-19T14:26:52.171Z,74.81
2022-11-19T14:32:00.056Z,74.34
2022-11-19T14:37:17.044Z,74.11
2022-11-19T14:42:22.181Z,74.40
2022-11-19T14:47:28.659Z,74.39
2022-11-19T14:52:40.059Z,74.21
2022-11-19T14:57:43.283Z,74.47
2022-11-19T15:02:48.369Z,74.76
2022-11-19T15:08:11.578Z,74.74
2022-11-19T15:13:25.804Z,74.92
2022-11-19T15:18:37.602Z,75.04
2022-11-19T15:24:15.019Z,75.09
2022-11-19T15:29:35.272Z,75.34
2022-11-19T15:35:13.662Z,75.51
2022-11-19T15:40:24.152Z,75.71
2022-11-19T15:45:27.141Z,75.37
2022-11-19T15:50:28.989Z,75.70
2022-11-19T15:55:31.741Z,75.79
2022-11-19T16:00:47.603Z,75.51
2022-11-19T16:06:02.478Z,75.41
2022-11-19T16:11:23.379Z,75.49
2022-11-19T16:16:47.508Z,76.00
2022-11-19T16:22:15.251Z,75.54
2022-11-19T16:33:49.921Z,75.78
2022-11-19T16:39:01.947Z,75.79
2022-11-19T16:44:11.633Z,75.77
2022-11-19T16:50:46.644Z,75.68
2022-11-19T17:10:07.810Z,76.38
2022-11-19T17:15:35.451Z,76.11
2022-11-19T17:27:41.967Z,77.32
2022-11-19T17:32:56.872Z,77.21
2022-11-19T17:38:29.959Z,77.06
2022-11-19T17:48:04.575Z,76.70
2022-11-19T17:57:13.390Z,76.72
2022-11-19T18:02:38.946Z,76.27
2022-11-19T18:14:16.464Z,76.09
2022-11-19T18:19:26.452Z,76.52
2022-11-19T18:24:28.477Z,76.36
2022-11-19T18:29:32.614Z,76.37
2022-11-19T18:34:35.145Z,76.67
2022-11-19T18:39:36.615Z,76.40
2022-11-19T18:44:38.767Z,76.12
2022-11-19T18:49:40.924Z,76.25
2022-11-19T18:54:42.532Z,76.38
2022-11-19T18:59:44.084Z,76.69
2022-11-19T19:04:50.654Z,76.72
2022-11-19T19:09:52.610Z,76.22
2022-11-19T19:14:54.599Z,76.77
2022-11-19T19:19:56.087Z,76.44
2022-11-19T19:24:58.501Z,76.53
2022-11-19T19:30:00.881Z,77.25
2022-11-19T19:35:02.562Z,77.66
2022-11-19T19:40:04.658Z,77.30
2022-11-19T19:45:06.942Z,77.46
2022-11-19T19:50:08.884Z,77.38
2022-11-19T19:55:10.456Z,77.92
2022-11-19T20:00:16.017Z,78.02
2022-11-19T20:05:24.399Z,78.15
2022-11-19T20:10:28.379Z,77.79
2022-11-19T20:15:32.994Z,77.40
2022-11-19T20:20:42.293Z,77.34
2022-11-19T20:25:46.646Z,77.24
2022-11-19T20:30:49.334Z,77.33
2022-11-19T20:35:53.884Z,77.32
2022-11-19T20:41:38.063Z,77.26
2022-11-19T20:52:37.661Z,77.55
2022-11-19T20:57:44.877Z,77.51
2022-11-19T21:02:46.486Z,77.00
2022-11-19T21:07:48.498Z,77.15
2022-11-19T21:13:02.396Z,76.68
2022-11-19T21:18:04.098Z,76.91
2022-11-19T21:23:05.639Z,76.77
2022-11-19T21:28:09.421Z,76.60
2022-11-19T21:33:10.979Z,76.68
2022-11-19T21:38:12.671Z,76.70
2022-11-19T21:43:14.217Z,76.91
2022-11-19T21:48:35.313Z,76.74
2022-11-19T21:53:40.511Z,76.66
2022-11-19T22:05:23.892Z,76.68
2022-11-19T22:10:27.873Z,76.54
2022-11-19T22:15:30.179Z,76.12
2022-11-19T22:25:48.464Z,76.11
2022-11-19T22:31:02.838Z,76.07
2022-11-19T22:36:10.024Z,76.03
2022-11-19T22:41:17.101Z,76.14
2022-11-19T22:46:20.776Z,76.01
2022-11-19T22:51:35.642Z,75.88
2022-11-19T22:56:42.128Z,75.55
2022-11-19T23:01:43.669Z,75.95
2022-11-19T23:06:45.086Z,75.63
2022-11-19T23:12:05.168Z,75.99
2022-11-19T23:17:06.799Z,75.91
2022-11-19T23:22:08.569Z,76.40
2022-11-19T23:27:09.969Z,75.77
2022-11-19T23:32:11.347Z,75.73
2022-11-19T23:37:12.910Z,75.92
2022-11-19T23:42:14.578Z,75.58
2022-11-19T23:47:16.004Z,75.74
2022-11-19T23:52:17.379Z,75.65
2022-11-19T23:57:18.811Z,75.84
